Aviation Digital Data Service (ADDS)

Output produced by TAFs form (1601 UTC 28 April 2017)
found at http://aviationweather.gov/adds/tafs/
 
KAMA 281120Z 2812/2912 31011KT P6SM FEW100 
     FM281500 22011KT P6SM FEW100 
     FM281800 21015G25KT P6SM SCT080 
     FM290000 02012KT P6SM VCSH OVC100 
     FM290300 03015KT P6SM VCSH OVC040 
     FM290900 01022G31KT 6SM -RA OVC030